AWQ666 WADD-WADL
Flight info
| Callsign | AWQ666 |
|---|---|
| Flight time | 0h 18m |
| Altitude | 9000 |
| Route | WADD/09 N0329F130 BIMO1C BIMOV BIMO1D WADL/13 |
| Aircraft | A320/M-SDE2E3FGHIRWXY/LB1 |
Departure
| Time | 2026-05-07 09:31 |
|---|---|
| Airport | Denpasar I Gusti Ngurah Rai International Airport (WADD) |
Arrival
| Time | 2026-05-07 09:50 |
|---|---|
| Airport | Lombok International Airport (WADL) |
| Time | Latitude | Longitude | Altitude | Speed | Heading |
|---|---|---|---|---|---|
| 2026-05-07 09:15 | -8.74536 | 115.16129 | 34 ft | 0 kts | 88° |
| 2026-05-07 09:22 | -8.74536 | 115.16118 | 33 ft | 4 kts | 90° |
| 2026-05-07 09:23 | -8.74532 | 115.16083 | 33 ft | 4 kts | 116° |
| 2026-05-07 09:23 | -8.74523 | 115.16069 | 29 ft | 4 kts | 156° |
| 2026-05-07 09:23 | -8.74515 | 115.16066 | 29 ft | 0 kts | 178° |
| 2026-05-07 09:27 | -8.74522 | 115.16066 | 30 ft | 2 kts | 178° |
| 2026-05-07 09:27 | -8.74564 | 115.16067 | 33 ft | 3 kts | 179° |
| 2026-05-07 09:28 | -8.74580 | 115.16067 | 33 ft | 2 kts | 179° |
| 2026-05-07 09:28 | -8.74597 | 115.16068 | 33 ft | 5 kts | 179° |
| 2026-05-07 09:28 | -8.74641 | 115.16070 | 33 ft | 7 kts | 176° |
| 2026-05-07 09:28 | -8.74697 | 115.16056 | 33 ft | 11 kts | 231° |
| 2026-05-07 09:29 | -8.74711 | 115.15946 | 33 ft | 20 kts | 268° |
| 2026-05-07 09:29 | -8.74716 | 115.15813 | 33 ft | 18 kts | 270° |
| 2026-05-07 09:29 | -8.74720 | 115.15686 | 32 ft | 20 kts | 268° |
| 2026-05-07 09:29 | -8.74726 | 115.15555 | 31 ft | 18 kts | 266° |
| 2026-05-07 09:30 | -8.74734 | 115.15436 | 32 ft | 16 kts | 263° |
| 2026-05-07 09:30 | -8.74820 | 115.15391 | 30 ft | 17 kts | 179° |
| 2026-05-07 09:30 | -8.74900 | 115.15434 | 29 ft | 13 kts | 83° |
| 2026-05-07 09:30 | -8.74893 | 115.15546 | 29 ft | 28 kts | 88° |
| 2026-05-07 09:31 | -8.74874 | 115.16006 | 29 ft | 98 kts | 87° |
| 2026-05-07 09:31 | -8.74835 | 115.16901 | 29 ft | 153 kts | 86° |
| 2026-05-07 09:31 | -8.74748 | 115.18051 | 476 ft | 167 kts | 88° |
| 2026-05-07 09:31 | -8.74656 | 115.19228 | 1220 ft | 169 kts | 90° |
| 2026-05-07 09:32 | -8.74601 | 115.20472 | 1649 ft | 187 kts | 89° |
| 2026-05-07 09:32 | -8.74568 | 115.21876 | 2037 ft | 212 kts | 90° |
| 2026-05-07 09:32 | -8.74531 | 115.23457 | 2551 ft | 236 kts | 90° |
| 2026-05-07 09:32 | -8.74481 | 115.25191 | 3096 ft | 254 kts | 89° |
| 2026-05-07 09:33 | -8.74418 | 115.26993 | 3936 ft | 259 kts | 89° |
| 2026-05-07 09:33 | -8.74347 | 115.28830 | 4797 ft | 264 kts | 88° |
| 2026-05-07 09:33 | -8.74272 | 115.30697 | 5636 ft | 268 kts | 88° |
| 2026-05-07 09:33 | -8.74195 | 115.32603 | 6437 ft | 274 kts | 88° |
| 2026-05-07 09:34 | -8.74117 | 115.34544 | 7222 ft | 278 kts | 87° |
| 2026-05-07 09:34 | -8.74038 | 115.36512 | 8030 ft | 282 kts | 87° |
| 2026-05-07 09:34 | -8.73958 | 115.38506 | 8720 ft | 287 kts | 87° |
| 2026-05-07 09:34 | -8.73877 | 115.40529 | 8946 ft | 288 kts | 87° |
| 2026-05-07 09:35 | -8.73796 | 115.42545 | 9008 ft | 287 kts | 87° |
| 2026-05-07 09:35 | -8.73715 | 115.44563 | 9011 ft | 287 kts | 86° |
| 2026-05-07 09:35 | -8.73631 | 115.46583 | 9012 ft | 287 kts | 86° |
| 2026-05-07 09:35 | -8.73535 | 115.48599 | 9014 ft | 287 kts | 83° |
| 2026-05-07 09:36 | -8.73061 | 115.50547 | 9013 ft | 286 kts | 66° |
| 2026-05-07 09:36 | -8.72065 | 115.52281 | 9013 ft | 286 kts | 51° |
| 2026-05-07 09:36 | -8.70689 | 115.53732 | 9012 ft | 286 kts | 44° |
| 2026-05-07 09:36 | -8.69269 | 115.55148 | 9013 ft | 287 kts | 45° |
| 2026-05-07 09:37 | -8.67851 | 115.56568 | 9010 ft | 287 kts | 45° |
| 2026-05-07 09:37 | -8.66437 | 115.57989 | 9009 ft | 286 kts | 45° |
| 2026-05-07 09:37 | -8.65026 | 115.59411 | 9006 ft | 286 kts | 45° |
| 2026-05-07 09:37 | -8.63614 | 115.60830 | 9006 ft | 287 kts | 45° |
| 2026-05-07 09:38 | -8.62197 | 115.62249 | 9005 ft | 287 kts | 45° |
| 2026-05-07 09:38 | -8.61568 | 115.62879 | 9007 ft | 287 kts | 44° |
| 2026-05-07 09:38 | -8.60227 | 115.64213 | 9006 ft | 287 kts | 44° |
| 2026-05-07 09:38 | -8.58809 | 115.65635 | 9006 ft | 287 kts | 45° |
| 2026-05-07 09:39 | -8.57394 | 115.67058 | 9006 ft | 287 kts | 45° |
| 2026-05-07 09:39 | -8.56187 | 115.68653 | 9002 ft | 287 kts | 62° |
| 2026-05-07 09:39 | -8.55539 | 115.70550 | 9005 ft | 287 kts | 80° |
| 2026-05-07 09:39 | -8.55511 | 115.72561 | 9005 ft | 288 kts | 98° |
| 2026-05-07 09:40 | -8.55896 | 115.74552 | 9001 ft | 289 kts | 100° |
| 2026-05-07 09:40 | -8.56294 | 115.76539 | 9000 ft | 289 kts | 100° |
| 2026-05-07 09:40 | -8.56688 | 115.78531 | 8993 ft | 289 kts | 100° |
| 2026-05-07 09:40 | -8.57080 | 115.80523 | 8996 ft | 290 kts | 100° |
| 2026-05-07 09:41 | -8.57472 | 115.82520 | 8996 ft | 290 kts | 100° |
| 2026-05-07 09:41 | -8.57863 | 115.84514 | 8997 ft | 286 kts | 100° |
| 2026-05-07 09:41 | -8.58241 | 115.86427 | 8999 ft | 269 kts | 100° |
| 2026-05-07 09:41 | -8.58562 | 115.88217 | 8907 ft | 257 kts | 94° |
| 2026-05-07 09:42 | -8.58717 | 115.89976 | 8769 ft | 247 kts | 94° |
| 2026-05-07 09:42 | -8.58868 | 115.91687 | 8493 ft | 243 kts | 94° |
| 2026-05-07 09:42 | -8.59019 | 115.93380 | 8174 ft | 241 kts | 94° |
| 2026-05-07 09:42 | -8.59170 | 115.95061 | 7849 ft | 240 kts | 95° |
| 2026-05-07 09:43 | -8.59321 | 115.96735 | 7519 ft | 239 kts | 95° |
| 2026-05-07 09:43 | -8.59472 | 115.98402 | 7207 ft | 238 kts | 95° |
| 2026-05-07 09:43 | -8.59620 | 116.00058 | 6827 ft | 236 kts | 95° |
| 2026-05-07 09:43 | -8.59768 | 116.01716 | 6259 ft | 238 kts | 95° |
| 2026-05-07 09:44 | -8.59917 | 116.03394 | 5624 ft | 242 kts | 95° |
| 2026-05-07 09:44 | -8.60068 | 116.05100 | 4975 ft | 245 kts | 96° |
| 2026-05-07 09:44 | -8.60222 | 116.06822 | 4353 ft | 246 kts | 96° |
| 2026-05-07 09:44 | -8.60564 | 116.08415 | 4321 ft | 221 kts | 115° |
| 2026-05-07 09:45 | -8.61391 | 116.09730 | 4243 ft | 224 kts | 129° |
| 2026-05-07 09:45 | -8.62372 | 116.10943 | 4033 ft | 222 kts | 129° |
| 2026-05-07 09:45 | -8.63339 | 116.12141 | 3767 ft | 218 kts | 129° |
| 2026-05-07 09:45 | -8.64285 | 116.13316 | 3499 ft | 210 kts | 128° |
| 2026-05-07 09:46 | -8.65179 | 116.14426 | 3238 ft | 196 kts | 128° |
| 2026-05-07 09:46 | -8.65998 | 116.15443 | 3026 ft | 176 kts | 128° |
| 2026-05-07 09:46 | -8.66735 | 116.16358 | 2795 ft | 160 kts | 128° |
| 2026-05-07 09:46 | -8.67413 | 116.17201 | 2580 ft | 149 kts | 128° |
| 2026-05-07 09:47 | -8.68048 | 116.17990 | 2406 ft | 142 kts | 128° |
| 2026-05-07 09:47 | -8.68667 | 116.18758 | 2225 ft | 140 kts | 128° |
| 2026-05-07 09:47 | -8.69278 | 116.19516 | 2047 ft | 139 kts | 129° |
| 2026-05-07 09:47 | -8.69876 | 116.20278 | 1852 ft | 138 kts | 128° |
| 2026-05-07 09:48 | -8.70474 | 116.21039 | 1635 ft | 137 kts | 129° |
| 2026-05-07 09:48 | -8.71058 | 116.21799 | 1497 ft | 135 kts | 128° |
| 2026-05-07 09:48 | -8.71618 | 116.22558 | 1496 ft | 134 kts | 129° |
| 2026-05-07 09:48 | -8.72200 | 116.23294 | 1389 ft | 133 kts | 131° |
| 2026-05-07 09:49 | -8.72792 | 116.24014 | 1224 ft | 133 kts | 131° |
| 2026-05-07 09:49 | -8.73409 | 116.24724 | 1038 ft | 135 kts | 134° |
| 2026-05-07 09:49 | -8.74037 | 116.25444 | 765 ft | 137 kts | 130° |
| 2026-05-07 09:49 | -8.74641 | 116.26179 | 493 ft | 135 kts | 128° |
| 2026-05-07 09:50 | -8.75232 | 116.26916 | 329 ft | 131 kts | 129° |
| 2026-05-07 09:50 | -8.75664 | 116.27451 | 331 ft | 56 kts | 129° |
| 2026-05-07 09:50 | -8.75843 | 116.27672 | 330 ft | 37 kts | 129° |
| 2026-05-07 09:50 | -8.75984 | 116.27828 | 334 ft | 16 kts | 167° |
| 2026-05-07 09:51 | -8.76081 | 116.27771 | 333 ft | 18 kts | 220° |
| 2026-05-07 09:51 | -8.76179 | 116.27685 | 330 ft | 14 kts | 244° |
| 2026-05-07 09:51 | -8.76138 | 116.27609 | 332 ft | 12 kts | 310° |
| 2026-05-07 09:51 | -8.76146 | 116.27565 | 333 ft | 6 kts | 221° |
| 2026-05-07 09:52 | -8.76174 | 116.27542 | 331 ft | 4 kts | 219° |
| 2026-05-07 09:52 | -8.76194 | 116.27526 | 331 ft | 2 kts | 218° |
| 2026-05-07 09:52 | -8.76195 | 116.27525 | 334 ft | 0 kts | 218° |